Time;durP1;ratioP1;P1;durP2;ratioP2;P2;SDS_P1;SDS_P2;PMS_P1;PMS_P2;Temp;Humidity;BMP_temperature;BMP_pressure;BME280_temperature;BME280_humidity;BME280_pressure;Samples;Min_cycle;Max_cycle;Signal;HPM_P1;HPM_P2
2023/09/04 00:01:06;;;;;;;6.72;5.72;;;;;;;16.30;100.00;102637.53;5205465;28;20505;-73
2023/09/04 00:03:38;;;;;;;7.10;6.03;;;;;;;16.28;100.00;102642.09;5203661;28;20030;-73
2023/09/04 00:06:09;;;;;;;5.70;5.18;;;;;;;16.26;100.00;102640.56;5205126;28;20033;-73
2023/09/04 00:08:40;;;;;;;5.75;5.15;;;;;;;16.20;100.00;102641.88;5204258;28;20057;-73
2023/09/04 00:11:11;;;;;;;6.18;5.57;;;;;;;16.16;100.00;102636.94;5203186;28;20026;-73
2023/09/04 00:13:43;;;;;;;6.30;5.70;;;;;;;16.13;100.00;102632.75;5204808;28;20041;-73
2023/09/04 00:16:14;;;;;;;6.80;5.15;;;;;;;16.15;100.00;102636.13;5204537;28;20808;-73
2023/09/04 00:18:46;;;;;;;6.30;5.70;;;;;;;16.10;100.00;102637.44;5203639;28;20036;-72
2023/09/04 00:21:17;;;;;;;9.80;6.27;;;;;;;16.06;100.00;102631.53;5204730;28;20668;-72
2023/09/04 00:23:49;;;;;;;5.95;5.35;;;;;;;16.08;100.00;102627.00;5205199;28;20218;-72
2023/09/04 00:26:20;;;;;;;6.82;5.55;;;;;;;15.99;100.00;102630.38;5203852;28;20048;-72
2023/09/04 00:28:51;;;;;;;6.07;5.50;;;;;;;15.94;100.00;102633.38;5203557;28;20033;-72
2023/09/04 00:31:22;;;;;;;6.13;5.53;;;;;;;15.91;100.00;102631.00;5204371;28;20363;-73
2023/09/04 00:33:54;;;;;;;6.57;5.97;;;;;;;15.92;100.00;102621.25;5204756;28;20022;-73
2023/09/04 00:36:25;;;;;;;6.80;5.75;;;;;;;15.82;100.00;102623.75;5204488;28;20080;-73
2023/09/04 00:38:56;;;;;;;6.78;6.07;;;;;;;15.79;100.00;102624.84;5204666;28;20072;-73
2023/09/04 00:41:28;;;;;;;6.68;6.00;;;;;;;15.77;100.00;102618.84;5202779;28;20033;-72
2023/09/04 00:43:59;;;;;;;6.32;5.78;;;;;;;15.73;100.00;102621.88;5203304;28;20040;-73
2023/09/04 00:46:30;;;;;;;7.10;6.20;;;;;;;15.72;100.00;102626.31;5186896;28;20462;-72
2023/09/04 00:49:02;;;;;;;6.28;5.75;;;;;;;15.67;100.00;102625.81;5204643;28;20113;-73
2023/09/04 00:51:33;;;;;;;6.00;5.50;;;;;;;15.64;100.00;102641.88;5202904;28;20448;-73
2023/09/04 00:54:05;;;;;;;9.05;5.30;;;;;;;15.57;100.00;102636.25;5203709;28;20056;-72
2023/09/04 00:56:37;;;;;;;6.40;5.75;;;;;;;15.56;100.00;102636.34;5204306;28;20446;-72
2023/09/04 00:59:08;;;;;;;7.07;6.47;;;;;;;15.49;100.00;102630.72;5203490;28;20088;-72
2023/09/04 01:01:40;;;;;;;6.75;6.03;;;;;;;15.44;100.00;102627.56;5203210;28;20642;-73
2023/09/04 01:04:11;;;;;;;7.28;6.28;;;;;;;15.38;100.00;102632.47;5203350;28;20026;-73
2023/09/04 01:06:42;;;;;;;7.15;6.47;;;;;;;15.40;100.00;102627.94;5204447;28;20048;-73
2023/09/04 01:09:14;;;;;;;7.05;6.35;;;;;;;15.38;100.00;102624.53;5202892;28;20084;-72
2023/09/04 01:11:56;;;;;;;7.40;6.65;;;;;;;15.47;100.00;102621.22;5202950;28;20104;-73
2023/09/04 01:14:29;;;;;;;6.38;5.78;;;;;;;15.30;100.00;102614.56;5204617;28;20131;-72
2023/09/04 01:17:01;;;;;;;6.60;6.00;;;;;;;15.30;100.00;102620.72;5203936;28;20029;-72
2023/09/04 01:19:32;;;;;;;7.72;6.78;;;;;;;15.27;100.00;102622.75;5204121;28;20169;-72
2023/09/04 01:22:08;;;;;;;7.25;6.55;;;;;;;15.20;100.00;102619.72;5202129;28;20093;-73
2023/09/04 01:24:39;;;;;;;6.85;6.20;;;;;;;15.13;100.00;102613.22;5204285;28;20040;-72
2023/09/04 01:27:39;;;;;;;7.93;6.82;;;;;;;15.45;100.00;102610.75;5204225;28;20033;-73
2023/09/04 01:30:21;;;;;;;6.85;6.18;;;;;;;15.25;100.00;102608.81;5202037;28;20507;-73
2023/09/04 01:33:01;;;;;;;6.97;6.38;;;;;;;15.29;100.00;102616.38;5203795;28;20109;-73
2023/09/04 01:35:33;;;;;;;7.18;6.57;;;;;;;15.10;100.00;102618.75;5204376;28;20055;-72
2023/09/04 01:38:04;;;;;;;7.75;6.85;;;;;;;15.06;100.00;102625.22;5202931;28;20034;-72
2023/09/04 01:40:35;;;;;;;8.13;7.30;;;;;;;15.09;100.00;102619.72;5207215;28;20030;-73
2023/09/04 01:43:07;;;;;;;7.45;6.75;;;;;;;15.04;100.00;102621.88;5208799;28;20061;-72
2023/09/04 01:45:38;;;;;;;7.35;6.65;;;;;;;15.09;100.00;102617.06;5208043;28;20078;-72
2023/09/04 01:48:09;;;;;;;7.70;7.00;;;;;;;15.03;100.00;102620.16;5206086;28;20443;-72
2023/09/04 01:50:40;;;;;;;7.95;7.13;;;;;;;14.97;100.00;102620.63;5206588;28;20079;-73
2023/09/04 01:53:12;;;;;;;7.07;6.38;;;;;;;14.93;100.00;102606.00;5207634;28;20307;-72
2023/09/04 01:55:43;;;;;;;7.93;7.13;;;;;;;14.95;100.00;102619.91;5203410;28;20026;-72
2023/09/04 01:58:14;;;;;;;7.55;6.85;;;;;;;14.95;100.00;102617.25;5206017;28;20563;-72
2023/09/04 02:00:47;;;;;;;7.57;6.88;;;;;;;14.90;100.00;102609.69;5205817;28;20030;-72
2023/09/04 02:03:18;;;;;;;8.35;6.90;;;;;;;14.97;100.00;102618.84;5207585;28;20036;-72
2023/09/04 02:05:49;;;;;;;8.05;7.25;;;;;;;14.99;100.00;102605.50;5206544;28;20030;-72
2023/09/04 02:08:21;;;;;;;7.75;7.05;;;;;;;14.94;100.00;102611.16;5207226;28;20042;-72
2023/09/04 02:10:54;;;;;;;8.05;7.25;;;;;;;14.91;100.00;102592.91;5206525;28;20569;-72
2023/09/04 02:13:25;;;;;;;8.70;7.53;;;;;;;14.84;100.00;102599.59;5204836;28;20041;-72
2023/09/04 02:15:56;;;;;;;7.47;6.88;;;;;;;14.80;100.00;102606.06;5206779;28;20021;-72
2023/09/04 02:18:27;;;;;;;7.05;6.45;;;;;;;14.76;100.00;102594.03;5207549;28;20156;-72
2023/09/04 02:21:00;;;;;;;8.00;7.30;;;;;;;14.75;100.00;102601.13;5205942;28;20402;-72
2023/09/04 02:23:31;;;;;;;8.00;7.20;;;;;;;14.73;100.00;102591.63;5206574;28;20041;-72
2023/09/04 02:26:02;;;;;;;7.55;6.85;;;;;;;14.67;100.00;102585.03;5207348;28;20109;-72
2023/09/04 02:28:34;;;;;;;8.48;7.68;;;;;;;14.63;100.00;102583.56;5204608;28;20030;-72
2023/09/04 02:31:06;;;;;;;7.80;7.05;;;;;;;14.70;100.00;102578.66;5204382;28;20049;-72
2023/09/04 02:33:38;;;;;;;8.48;7.68;;;;;;;14.67;100.00;102574.47;5207509;28;20419;-72
2023/09/04 02:36:09;;;;;;;11.90;8.20;;;;;;;14.69;100.00;102584.91;5206976;28;20037;-72
2023/09/04 02:38:41;;;;;;;9.23;8.27;;;;;;;14.70;100.00;102579.53;5205909;28;20029;-72
2023/09/04 02:41:12;;;;;;;15.23;8.85;;;;;;;14.77;100.00;102580.75;5206003;28;20117;-72
2023/09/04 02:43:43;;;;;;;10.40;9.20;;;;;;;14.84;100.00;102574.03;5207563;28;20412;-72
2023/09/04 02:46:15;;;;;;;9.77;8.88;;;;;;;14.88;100.00;102568.53;5206430;28;20392;-72
2023/09/04 02:48:46;;;;;;;9.65;8.70;;;;;;;14.90;100.00;102566.63;5206054;28;20107;-72
2023/09/04 02:51:17;;;;;;;10.55;9.15;;;;;;;14.94;100.00;102576.00;5205964;28;20113;-72
2023/09/04 02:53:48;;;;;;;9.48;8.63;;;;;;;14.95;100.00;102567.94;5206004;28;20076;-72
2023/09/04 02:56:20;;;;;;;10.20;9.18;;;;;;;14.90;100.00;102570.09;5206378;28;20452;-72
2023/09/04 02:58:51;;;;;;;10.90;9.88;;;;;;;14.93;100.00;102576.97;5204939;28;20476;-72
2023/09/04 03:01:23;;;;;;;9.77;8.85;;;;;;;14.91;100.00;102565.66;5206110;28;20409;-72
2023/09/04 03:03:54;;;;;;;10.20;9.30;;;;;;;14.93;100.00;102561.13;5204981;28;20561;-72
2023/09/04 03:06:25;;;;;;;11.27;10.07;;;;;;;14.93;100.00;102563.75;5205846;28;20025;-72
2023/09/04 03:08:56;;;;;;;11.32;10.32;;;;;;;14.92;100.00;102557.63;5206053;28;20030;-72
2023/09/04 03:11:28;;;;;;;12.13;10.07;;;;;;;14.85;100.00;102561.72;5205142;28;20085;-72
2023/09/04 03:13:59;;;;;;;11.60;10.50;;;;;;;14.86;100.00;102552.81;5205091;28;20125;-72
2023/09/04 03:16:30;;;;;;;11.30;10.20;;;;;;;14.86;100.00;102539.63;5204334;28;20057;-72
2023/09/04 03:19:02;;;;;;;10.77;9.73;;;;;;;14.90;100.00;102542.88;5206967;28;20112;-72
2023/09/04 03:21:33;;;;;;;10.70;9.63;;;;;;;14.80;100.00;102521.63;5205244;28;20510;-72
2023/09/04 03:24:05;;;;;;;11.32;10.07;;;;;;;14.86;100.00;102530.88;5204428;28;20119;-72
2023/09/04 03:26:36;;;;;;;13.45;10.50;;;;;;;14.80;100.00;102513.69;5206482;28;20033;-72
2023/09/04 03:29:07;;;;;;;11.30;10.30;;;;;;;14.87;100.00;102528.13;5205915;28;20037;-73
2023/09/04 03:31:38;;;;;;;10.55;9.55;;;;;;;14.84;100.00;102541.53;5202798;28;20495;-72
2023/09/04 03:34:10;;;;;;;11.60;9.95;;;;;;;14.81;100.00;102547.91;5206611;28;20399;-72
2023/09/04 03:36:41;;;;;;;11.98;10.75;;;;;;;14.84;100.00;102544.19;5205660;28;20471;-72
2023/09/04 03:39:12;;;;;;;10.95;9.93;;;;;;;14.79;100.00;102549.81;5204759;28;20058;-72
2023/09/04 03:41:44;;;;;;;11.70;10.35;;;;;;;14.75;100.00;102543.09;5203751;28;20034;-72
2023/09/04 03:44:15;;;;;;;11.40;10.30;;;;;;;14.77;100.00;102538.53;5206573;28;20033;-72
2023/09/04 03:46:46;;;;;;;12.68;11.35;;;;;;;14.77;100.00;102541.19;5204998;28;20137;-72
2023/09/04 03:49:17;;;;;;;11.20;10.10;;;;;;;14.81;100.00;102541.75;5204738;28;20096;-72
2023/09/04 03:51:49;;;;;;;11.93;10.45;;;;;;;14.80;100.00;102538.28;5204806;28;20531;-72
2023/09/04 03:54:21;;;;;;;11.02;9.93;;;;;;;14.75;100.00;102529.88;5205923;28;20110;-72
2023/09/04 03:56:52;;;;;;;11.10;9.93;;;;;;;14.82;100.00;102525.84;5203773;28;20030;-72
2023/09/04 03:59:23;;;;;;;11.90;10.80;;;;;;;14.84;100.00;102530.97;5205331;28;20052;-72
2023/09/04 04:01:55;;;;;;;11.80;10.63;;;;;;;14.84;100.00;102526.53;5204427;28;20072;-72
2023/09/04 04:04:26;;;;;;;10.75;9.80;;;;;;;14.83;100.00;102526.66;5205058;28;20094;-72
2023/09/04 04:06:57;;;;;;;12.45;11.27;;;;;;;14.79;100.00;102528.69;5203610;28;20072;-72
2023/09/04 04:09:29;;;;;;;11.55;10.50;;;;;;;14.74;100.00;102533.50;5205117;28;20092;-72
2023/09/04 04:12:00;;;;;;;11.48;10.38;;;;;;;14.81;100.00;102539.13;5203998;28;20101;-72
2023/09/04 04:14:31;;;;;;;11.30;9.90;;;;;;;14.79;100.00;102536.63;5204494;28;20037;-72
2023/09/04 04:17:03;;;;;;;10.82;9.82;;;;;;;14.78;100.00;102534.09;5203079;28;20444;-72
2023/09/04 04:19:34;;;;;;;11.00;10.00;;;;;;;14.71;100.00;102536.34;5205455;28;20399;-72
2023/09/04 04:22:06;;;;;;;11.85;10.65;;;;;;;14.70;100.00;102525.91;5203014;28;20033;-72
2023/09/04 04:24:37;;;;;;;11.15;10.05;;;;;;;14.71;100.00;102533.72;5204098;28;20690;-72
2023/09/04 04:27:09;;;;;;;11.50;10.30;;;;;;;14.69;100.00;102534.78;5203639;28;20113;-72
2023/09/04 04:29:42;;;;;;;11.02;10.05;;;;;;;14.68;100.00;102533.94;5205059;28;20483;-72
2023/09/04 04:32:14;;;;;;;12.10;10.80;;;;;;;14.65;100.00;102530.69;5203702;28;20033;-71
2023/09/04 04:34:46;;;;;;;10.57;9.57;;;;;;;14.63;100.00;102533.47;5203690;28;20519;-71
2023/09/04 04:37:17;;;;;;;13.25;10.90;;;;;;;14.60;100.00;102528.41;5204380;28;20387;-72
2023/09/04 04:39:50;;;;;;;11.65;10.55;;;;;;;14.57;100.00;102529.47;5203253;28;20034;-71
2023/09/04 04:42:25;;;;;;;12.07;10.43;;;;;;;14.60;100.00;102534.53;5204616;28;20038;-72
2023/09/04 04:44:56;;;;;;;10.70;9.63;;;;;;;14.55;100.00;102531.41;5204297;28;20634;-72
2023/09/04 04:47:27;;;;;;;11.10;10.10;;;;;;;14.50;100.00;102527.41;5204023;28;20124;-72
2023/09/04 04:49:59;;;;;;;11.80;10.63;;;;;;;14.49;100.00;102523.06;5203137;28;20487;-72
2023/09/04 04:52:30;;;;;;;11.30;10.18;;;;;;;14.51;100.00;102518.56;5203236;28;20443;-72
2023/09/04 04:55:02;;;;;;;10.68;9.68;;;;;;;14.46;100.00;102520.66;5202567;28;20081;-72
2023/09/04 04:57:33;;;;;;;10.48;9.57;;;;;;;14.46;100.00;102515.38;5202648;28;20113;-72
2023/09/04 05:00:06;;;;;;;11.45;10.45;;;;;;;14.42;100.00;102522.66;5201449;28;20084;-71
2023/09/04 05:02:38;;;;;;;10.63;9.52;;;;;;;14.40;100.00;102521.13;5202994;28;20034;-72
2023/09/04 05:05:10;;;;;;;11.20;10.18;;;;;;;14.40;100.00;102524.59;5203010;28;20029;-72
2023/09/04 05:07:42;;;;;;;11.23;10.10;;;;;;;14.40;100.00;102526.41;5203093;28;20076;-71
2023/09/04 05:10:13;;;;;;;11.80;10.60;;;;;;;14.40;100.00;102529.03;5204076;28;20036;-72
2023/09/04 05:12:44;;;;;;;10.93;9.93;;;;;;;14.44;100.00;102535.75;5202210;28;20041;-71
2023/09/04 05:15:15;;;;;;;11.82;10.73;;;;;;;14.43;100.00;102539.31;5206982;28;20397;-71
2023/09/04 05:17:47;;;;;;;12.07;10.77;;;;;;;14.41;100.00;102528.06;5190253;28;20442;-72
2023/09/04 05:20:18;;;;;;;10.98;9.95;;;;;;;14.36;100.00;102537.16;5206689;28;20578;-72
2023/09/04 05:22:49;;;;;;;10.95;9.93;;;;;;;14.41;100.00;102536.81;5205515;28;20710;-72
2023/09/04 05:25:20;;;;;;;11.63;10.52;;;;;;;14.36;100.00;102523.97;5207535;28;20653;-72
2023/09/04 05:27:52;;;;;;;12.57;11.38;;;;;;;14.46;100.00;102529.41;5206929;28;20517;-72
2023/09/04 05:30:23;;;;;;;12.18;10.98;;;;;;;14.48;100.00;102532.78;5207250;28;20029;-73
2023/09/04 05:32:55;;;;;;;13.07;10.80;;;;;;;14.49;100.00;102531.84;5207665;28;20058;-72
2023/09/04 05:35:26;;;;;;;11.82;10.68;;;;;;;14.58;100.00;102532.94;5207892;28;20123;-72
2023/09/04 05:37:58;;;;;;;12.82;11.52;;;;;;;14.59;100.00;102534.66;5207856;28;20393;-72
2023/09/04 05:40:29;;;;;;;12.85;11.55;;;;;;;14.64;100.00;102532.50;5206633;28;20280;-72
2023/09/04 05:43:01;;;;;;;13.07;11.82;;;;;;;14.66;100.00;102529.72;5205761;28;20042;-72
2023/09/04 05:45:32;;;;;;;12.85;11.45;;;;;;;14.66;100.00;102537.66;5207243;28;20530;-72
2023/09/04 05:48:06;;;;;;;12.25;11.05;;;;;;;14.67;100.00;102531.44;5206695;28;20056;-72
2023/09/04 05:50:37;;;;;;;12.50;11.20;;;;;;;14.70;100.00;102533.81;5207182;28;20494;-72
2023/09/04 05:53:08;;;;;;;13.27;12.07;;;;;;;14.72;100.00;102530.13;5201494;28;20140;-72
2023/09/04 05:55:40;;;;;;;12.35;11.25;;;;;;;14.70;100.00;102518.84;5206581;28;20030;-72
2023/09/04 05:58:12;;;;;;;12.87;11.67;;;;;;;14.83;100.00;102531.94;5206902;28;20028;-72
2023/09/04 06:00:43;;;;;;;13.55;12.25;;;;;;;14.88;100.00;102526.31;5205334;28;20017;-73
2023/09/04 06:03:14;;;;;;;14.40;13.07;;;;;;;14.92;100.00;102535.66;5199770;28;20030;-72
2023/09/04 06:05:46;;;;;;;13.82;11.93;;;;;;;14.97;100.00;102533.53;5203895;28;20033;-71
2023/09/04 06:08:17;;;;;;;13.10;11.82;;;;;;;14.99;100.00;102537.72;5205206;28;20034;-73
2023/09/04 06:10:49;;;;;;;14.23;12.77;;;;;;;15.04;100.00;102529.47;5205951;28;20022;-73
2023/09/04 06:13:20;;;;;;;13.68;12.38;;;;;;;15.12;100.00;102532.38;5206583;28;20018;-72
2023/09/04 06:15:52;;;;;;;14.57;13.13;;;;;;;15.18;100.00;102531.88;5199016;28;20075;-74
2023/09/04 06:18:23;;;;;;;13.48;12.10;;;;;;;15.26;100.00;102533.91;5198094;28;20034;-75
2023/09/04 06:20:55;;;;;;;13.15;11.88;;;;;;;15.29;100.00;102528.41;5204935;28;20430;-76
2023/09/04 06:23:26;;;;;;;13.93;12.18;;;;;;;15.35;100.00;102537.66;5204575;28;20479;-73
2023/09/04 06:26:01;;;;;;;13.90;12.35;;;;;;;15.50;100.00;102539.94;5202677;28;20092;-74
2023/09/04 06:28:33;;;;;;;13.95;12.38;;;;;;;15.50;100.00;102537.28;5202356;28;20120;-72
2023/09/04 06:31:04;;;;;;;14.15;12.75;;;;;;;15.56;100.00;102542.06;5204242;28;20392;-75
2023/09/04 06:33:37;;;;;;;14.70;13.20;;;;;;;15.63;100.00;102531.88;5204563;28;20036;-73
2023/09/04 06:36:09;;;;;;;;;;;;;;;16.31;100.00;102535.22;5206240;28;20025;-74
2023/09/04 06:38:40;;;;;;;14.47;13.03;;;;;;;15.82;100.00;102534.75;5202940;28;20367;-72
2023/09/04 06:41:11;;;;;;;15.85;14.35;;;;;;;15.90;100.00;102533.28;5204316;28;20297;-74
2023/09/04 06:43:43;;;;;;;15.98;14.38;;;;;;;15.94;100.00;102530.28;5205455;28;20079;-73
2023/09/04 06:46:14;;;;;;;14.57;13.05;;;;;;;16.04;100.00;102525.09;5204042;28;20138;-76
2023/09/04 06:48:45;;;;;;;18.50;13.18;;;;;;;16.14;100.00;102531.31;5203742;28;20557;-75
2023/09/04 06:51:16;;;;;;;15.07;13.57;;;;;;;16.24;100.00;102529.59;5200216;28;20466;-74
2023/09/04 06:53:48;;;;;;;15.63;12.57;;;;;;;16.32;100.00;102531.59;5204255;28;20033;-72
2023/09/04 06:56:19;;;;;;;16.60;13.82;;;;;;;16.42;100.00;102523.75;5202734;28;20160;-73
2023/09/04 06:58:51;;;;;;;15.18;13.77;;;;;;;16.56;100.00;102518.16;5201229;28;20033;-76
2023/09/04 07:01:23;;;;;;;15.18;13.60;;;;;;;16.66;100.00;102519.03;5203482;28;20583;-72
2023/09/04 07:03:54;;;;;;;14.25;12.68;;;;;;;16.72;100.00;102521.19;5202663;28;20034;-73
2023/09/04 07:06:25;;;;;;;15.10;13.68;;;;;;;16.87;100.00;102520.88;5202693;28;20479;-74
2023/09/04 07:08:57;;;;;;;14.68;13.27;;;;;;;16.98;100.00;102520.81;5199624;28;20030;-72
2023/09/04 07:11:28;;;;;;;15.40;14.00;;;;;;;17.12;100.00;102519.63;5205045;28;20085;-73
2023/09/04 07:13:59;;;;;;;14.48;13.00;;;;;;;17.23;100.00;102514.22;5203207;28;20038;-73
2023/09/04 07:16:37;;;;;;;15.05;13.55;;;;;;;17.35;100.00;102520.28;5204496;28;20460;-74
2023/09/04 07:19:08;;;;;;;13.93;12.63;;;;;;;17.35;100.00;102513.19;5205578;28;20387;-74
2023/09/04 07:21:40;;;;;;;14.93;13.30;;;;;;;17.55;100.00;102518.56;5205287;28;20031;-73
2023/09/04 07:24:12;;;;;;;14.35;12.85;;;;;;;17.64;100.00;102517.72;5206318;28;20025;-73
2023/09/04 07:26:43;;;;;;;13.85;12.25;;;;;;;17.71;100.00;102519.69;5208931;28;20053;-74
2023/09/04 07:29:17;;;;;;;14.20;12.23;;;;;;;17.88;100.00;102512.94;5208846;28;20164;-72
2023/09/04 07:31:48;;;;;;;13.27;11.98;;;;;;;17.98;100.00;102527.03;5206826;28;20310;-74
2023/09/04 07:34:19;;;;;;;12.93;11.73;;;;;;;18.12;100.00;102520.50;5204290;28;20029;-73
2023/09/04 07:36:52;;;;;;;13.32;11.27;;;;;;;18.34;100.00;102521.22;5199586;28;20096;-73
2023/09/04 07:39:23;;;;;;;12.55;11.10;;;;;;;18.40;100.00;102520.63;5199270;28;20482;-73
2023/09/04 07:41:56;;;;;;;11.75;10.68;;;;;;;18.57;100.00;102525.22;5202805;28;20472;-73
2023/09/04 07:44:27;;;;;;;11.25;10.15;;;;;;;18.60;100.00;102532.91;5202756;28;20430;-73
2023/09/04 07:46:58;;;;;;;12.82;11.38;;;;;;;18.86;100.00;102525.19;5202011;28;20242;-73
2023/09/04 07:49:30;;;;;;;10.60;9.68;;;;;;;18.93;100.00;102523.63;5197864;28;20336;-73
2023/09/04 07:52:01;;;;;;;10.82;9.85;;;;;;;19.05;100.00;102521.66;5201290;28;20021;-74
2023/09/04 07:54:32;;;;;;;13.27;9.88;;;;;;;19.14;100.00;102506.69;5203081;28;20372;-73
2023/09/04 07:57:05;;;;;;;10.48;9.50;;;;;;;19.35;100.00;102506.44;5201869;28;20026;-73
2023/09/04 07:59:37;;;;;;;9.73;8.88;;;;;;;19.43;100.00;102503.88;5202112;28;20026;-73
2023/09/04 08:02:08;;;;;;;9.93;9.02;;;;;;;19.66;100.00;102505.19;5202791;28;20376;-73
2023/09/04 08:04:40;;;;;;;10.02;9.13;;;;;;;19.79;100.00;102499.50;5202636;28;20033;-73
2023/09/04 08:07:11;;;;;;;11.25;9.25;;;;;;;19.91;100.00;102508.09;5199129;28;20434;-74
2023/09/04 08:09:42;;;;;;;9.05;8.27;;;;;;;19.98;100.00;102506.50;5200321;28;20432;-74
2023/09/04 08:12:13;;;;;;;9.40;8.17;;;;;;;20.15;100.00;102507.47;5200647;28;20527;-74
2023/09/04 08:14:47;;;;;;;8.73;7.80;;;;;;;20.22;100.00;102507.72;5200082;28;20395;-74
2023/09/04 08:17:18;;;;;;;8.70;7.82;;;;;;;20.22;100.00;102503.22;5200435;28;20463;-74
2023/09/04 08:19:49;;;;;;;8.65;7.85;;;;;;;20.34;100.00;102511.81;5201354;28;20025;-74
2023/09/04 08:22:21;;;;;;;10.40;8.38;;;;;;;20.47;100.00;102506.09;5182845;28;20531;-74
2023/09/04 08:24:54;;;;;;;10.63;8.38;;;;;;;20.54;100.00;102507.19;5202026;28;20121;-74
2023/09/04 08:27:25;;;;;;;8.13;7.32;;;;;;;20.66;100.00;102508.59;5202647;28;20606;-74
2023/09/04 08:29:56;;;;;;;8.25;7.20;;;;;;;20.87;100.00;102505.56;5199334;28;20038;-74
2023/09/04 08:32:28;;;;;;;7.65;6.85;;;;;;;20.98;100.00;102507.94;5199752;28;20092;-74
2023/09/04 08:34:59;;;;;;;10.47;6.97;;;;;;;21.10;100.00;102503.19;5200493;28;20029;-74
2023/09/04 08:37:30;;;;;;;7.17;6.20;;;;;;;21.24;100.00;102494.59;5201946;28;20033;-74
2023/09/04 08:40:02;;;;;;;6.77;6.07;;;;;;;21.48;100.00;102499.22;5200476;28;20445;-74
2023/09/04 08:42:38;;;;;;;6.60;5.53;;;;;;;21.69;100.00;102504.09;5201641;28;20029;-74
2023/09/04 08:45:09;;;;;;;7.82;5.65;;;;;;;21.75;100.00;102499.97;5202775;28;20050;-74
2023/09/04 08:47:42;;;;;;;5.93;5.33;;;;;;;21.94;100.00;102499.66;5201795;28;20165;-74
2023/09/04 08:50:14;;;;;;;7.53;5.40;;;;;;;21.89;100.00;102488.63;5201307;28;20115;-74
2023/09/04 08:52:45;;;;;;;6.10;5.43;;;;;;;22.16;100.00;102502.69;5201556;28;20116;-74
2023/09/04 08:55:18;;;;;;;5.87;4.90;;;;;;;22.29;100.00;102495.88;5200993;28;20038;-74
2023/09/04 08:57:49;;;;;;;6.93;4.70;;;;;;;22.41;100.00;102496.34;5200929;28;20061;-75
2023/09/04 09:00:21;;;;;;;7.60;4.90;;;;;;;22.50;100.00;102495.38;5199260;28;20254;-74
2023/09/04 09:02:55;;;;;;;6.23;4.17;;;;;;;22.68;100.00;102492.47;5198500;28;20021;-74
2023/09/04 09:05:26;;;;;;;5.82;4.65;;;;;;;22.77;100.00;102490.66;5201434;28;20470;-74
2023/09/04 09:07:59;;;;;;;6.03;4.37;;;;;;;22.95;100.00;102485.09;5201314;28;20029;-74
2023/09/04 09:10:30;;;;;;;4.45;3.80;;;;;;;23.06;100.00;102487.41;5201588;28;20034;-74
2023/09/04 09:13:01;;;;;;;5.63;4.47;;;;;;;23.16;100.00;102487.22;5186462;28;20040;-74
2023/09/04 09:15:33;;;;;;;4.20;3.80;;;;;;;23.22;99.42;102479.34;5204942;28;20403;-75
2023/09/04 09:18:04;;;;;;;4.70;3.90;;;;;;;23.35;100.00;102480.59;5201152;28;20130;-74
2023/09/04 09:20:44;;;;;;;5.77;3.93;;;;;;;23.48;94.23;102489.72;5202245;28;20032;-74
2023/09/04 09:23:15;;;;;;;5.57;3.70;;;;;;;23.50;89.14;102495.72;5203826;28;20025;-74
2023/09/04 09:25:54;;;;;;;3.83;3.47;;;;;;;23.76;95.20;102482.06;5204461;28;20029;-74
2023/09/04 09:28:25;;;;;;;4.03;3.35;;;;;;;23.75;96.98;102490.25;5202011;28;20598;-75
2023/09/04 09:30:58;;;;;;;4.57;3.77;;;;;;;24.02;90.97;102499.63;5201108;28;20030;-74
2023/09/04 09:33:29;;;;;;;3.70;2.70;;;;;;;23.98;86.70;102499.16;5201484;28;20513;-75
2023/09/04 09:36:01;;;;;;;6.30;3.23;;;;;;;24.14;81.58;102498.19;5201753;28;20022;-74
2023/09/04 09:38:32;;;;;;;4.07;2.93;;;;;;;24.39;85.39;102498.81;5201247;28;20029;-76
2023/09/04 09:41:03;;;;;;;3.83;3.20;;;;;;;24.32;80.55;102491.66;5200333;28;20034;-75
2023/09/04 09:43:34;;;;;;;6.57;3.40;;;;;;;24.44;79.86;102495.63;5198315;28;20037;-76
2023/09/04 09:46:08;;;;;;;3.37;2.83;;;;;;;24.50;79.88;102497.56;5200112;28;20345;-75
2023/09/04 09:48:40;;;;;;;3.72;3.30;;;;;;;24.49;76.81;102494.03;5200219;28;20042;-75
2023/09/04 09:51:13;;;;;;;3.73;3.07;;;;;;;24.71;82.39;102483.47;5201030;28;20040;-75
2023/09/04 09:53:49;;;;;;;3.60;2.55;;;;;;;24.81;80.15;102484.00;5200746;28;20360;-75
2023/09/04 09:56:21;;;;;;;4.88;3.28;;;;;;;24.79;77.44;102479.84;5202680;28;20037;-75
2023/09/04 09:58:52;;;;;;;2.67;2.33;;;;;;;24.93;79.41;102477.19;5202136;28;20030;-76
2023/09/04 10:01:24;;;;;;;3.77;2.67;;;;;;;24.82;71.73;102469.59;5202039;28;20080;-75
2023/09/04 10:03:56;;;;;;;2.90;2.47;;;;;;;24.85;70.05;102469.22;5205205;28;20491;-76
2023/09/04 10:06:34;;;;;;;3.77;2.63;;;;;;;24.95;68.29;102472.44;5203233;28;20380;-75
2023/09/04 10:09:08;;;;;;;3.67;2.50;;;;;;;25.10;72.82;102455.53;5203810;28;20029;-75
2023/09/04 10:11:44;;;;;;;3.28;2.28;;;;;;;25.39;72.31;102458.16;5204137;28;20026;-75
2023/09/04 10:14:20;;;;;;;3.25;2.45;;;;;;;25.41;72.47;102466.03;5205046;28;20335;-75
2023/09/04 10:16:57;;;;;;;3.78;2.28;;;;;;;25.53;68.61;102471.72;5200615;28;20087;-75
2023/09/04 10:19:32;;;;;;;3.78;2.80;;;;;;;25.44;73.17;102463.78;5200003;28;20651;-76
2023/09/04 10:22:08;;;;;;;3.35;2.25;;;;;;;25.71;70.25;102469.44;5202608;28;20611;-76
2023/09/04 10:25:09;;;;;;;4.07;2.40;;;;;;;25.87;69.91;102460.31;5203563;28;20044;-76
2023/09/04 10:27:54;;;;;;;4.90;2.20;;;;;;;25.90;71.42;102452.72;5201625;28;20036;-76
2023/09/04 10:30:30;;;;;;;3.95;2.50;;;;;;;25.88;67.49;102452.09;5203405;28;20124;-75
2023/09/04 10:33:02;;;;;;;3.92;2.50;;;;;;;25.91;65.03;102449.03;5203929;28;20033;-76
2023/09/04 10:35:33;;;;;;;2.58;2.22;;;;;;;25.93;70.38;102446.97;5203728;28;20486;-76
2023/09/04 10:38:06;;;;;;;2.77;2.17;;;;;;;26.03;66.22;102443.13;5203275;28;20096;-75
2023/09/04 10:40:39;;;;;;;3.22;2.30;;;;;;;26.10;68.00;102433.25;5204450;28;20030;-76
2023/09/04 10:43:11;;;;;;;6.20;2.65;;;;;;;26.19;62.75;102432.09;5202717;28;20117;-76
2023/09/04 10:45:42;;;;;;;3.37;2.40;;;;;;;26.31;59.96;102427.84;5204101;28;20053;-76
2023/09/04 10:48:13;;;;;;;4.33;2.43;;;;;;;26.35;57.05;102421.03;5204148;28;20287;-76
2023/09/04 10:50:44;;;;;;;3.57;2.47;;;;;;;26.47;57.25;102431.28;5206763;28;20026;-76
2023/09/04 10:53:29;;;;;;;3.17;2.10;;;;;;;26.69;55.80;102422.94;5203884;28;20346;-76
2023/09/04 10:56:10;;;;;;;4.13;2.10;;;;;;;26.69;54.10;102422.09;5203011;28;20072;-76
2023/09/04 10:58:58;;;;;;;2.60;1.95;;;;;;;26.66;52.94;102415.25;5203767;28;20040;-76
2023/09/04 11:01:33;;;;;;;3.85;1.95;;;;;;;26.46;52.06;102413.50;5203561;28;20092;-76
2023/09/04 11:04:09;;;;;;;2.42;1.83;;;;;;;26.70;52.89;102410.31;5204581;28;20196;-75
2023/09/04 11:06:41;;;;;;;2.78;2.00;;;;;;;26.82;52.52;102410.56;5202725;28;20129;-76
2023/09/04 11:09:14;;;;;;;3.30;2.25;;;;;;;26.83;54.93;102418.47;5202247;28;20069;-76
2023/09/04 11:11:56;;;;;;;2.42;1.67;;;;;;;27.07;55.08;102408.19;5202028;28;20026;-77
2023/09/04 11:14:32;;;;;;;2.50;2.00;;;;;;;27.15;50.81;102403.50;5202202;28;21215;-76
2023/09/04 11:17:06;;;;;;;3.95;2.30;;;;;;;26.89;50.65;102406.06;5203331;28;20030;-76
2023/09/04 11:19:38;;;;;;;3.10;2.10;;;;;;;27.01;49.45;102409.00;5200578;28;20036;-76
2023/09/04 11:22:16;;;;;;;4.23;1.90;;;;;;;27.03;53.67;102407.78;5203965;28;20034;-76
2023/09/04 11:24:49;;;;;;;2.50;2.10;;;;;;;26.99;51.29;102394.94;5202711;28;20030;-77
2023/09/04 11:27:21;;;;;;;3.22;2.17;;;;;;;27.02;51.48;102389.97;5203425;28;20383;-76
2023/09/04 11:29:53;;;;;;;2.63;2.10;;;;;;;27.20;51.20;102394.84;5205566;28;20206;-77
2023/09/04 11:32:25;;;;;;;2.97;2.30;;;;;;;27.26;53.53;102382.41;5204910;28;20064;-76
2023/09/04 11:34:57;;;;;;;3.78;2.20;;;;;;;27.33;51.78;102383.25;5200700;28;20420;-77